Kezdőlap
METAR-TAF:

METAR-TAF

Repülőterek :

Lublin, Lengyelország

földrajzi szélesség: 51-13-55N, földrajzi hosszúság: 22-41-25E, magasság: 203 m

Jelenlegi meteorológiai megfigyelések

A jelentés 10 perccel ezelõtt készült, 22:30 UTC
Különbözõ irányokból fújó szél 1 kt
Hőmérséklet 19°C
Páratartalom 83%
Légköri nyomás 1011 hPa
Látótávolság 10 km, vagy több
felhőtlen 1500 m magasságban, és nincs gomolyfelhõ

METAR: EPLB 212230Z VRB01KT CAVOK 19/16 Q1011

Idő: 00:40 (22:40 UTC)

Előrejelzés

A jelentés 5 órával és 10 perccel ezelõtt készült, 17:30 UTC
Az előrejelzés 21-én 18 óra UTC és 22-én 18 óra UTC között érvényes
Különbözõ irányokból fújó szél 2 kt
Látótávolság 10 km, vagy több
felhőtlen 1500 m magasságban, és nincs gomolyfelhõ

TAF: EPLB 211730Z 2118/2218 VRB02KT CAVOK

Meteorológiai megfigyelések és előrejelzések több, mint 4000 repülőtéren (METAR és TAF jelentéseket).

A térképen piros és sárga pontok jelzik az elérhető meteorológiai állomásokat.

Mozgassa az egeret a pont fölött, hogy megjelenjen az állomás neve.

Azután kattintson az időjárási megfigyelések és előrejelzések megtekintéséhez.

A térkép megváltoztatása: kattintson a fekete keresztel jelölt zöld gombra ráközelítéshez, a vonallal jelölt zöld gombra távolításhoz, vagy a zöld nyilakra a szomszédos térképek eléréséhez.


METAR-TAF: